sensor_id;sensor_type;location;lat;lon;timestamp;P1;durP1;ratioP1;P2;durP2;ratioP2
2638;SDS011;1329;51.384;7.122;2023-02-23T00:01:48;47.77;;;38.40;;
2638;SDS011;1329;51.384;7.122;2023-02-23T00:04:16;49.43;;;40.10;;
2638;SDS011;1329;51.384;7.122;2023-02-23T00:06:45;49.40;;;40.33;;
2638;SDS011;1329;51.384;7.122;2023-02-23T00:09:12;47.87;;;40.27;;
2638;SDS011;1329;51.384;7.122;2023-02-23T00:11:47;47.90;;;40.40;;
2638;SDS011;1329;51.384;7.122;2023-02-23T00:14:14;49.63;;;41.60;;
2638;SDS011;1329;51.384;7.122;2023-02-23T00:16:41;45.20;;;38.47;;
2638;SDS011;1329;51.384;7.122;2023-02-23T00:19:10;48.67;;;40.00;;
2638;SDS011;1329;51.384;7.122;2023-02-23T00:21:39;46.97;;;39.57;;
2638;SDS011;1329;51.384;7.122;2023-02-23T00:24:15;47.43;;;39.73;;
2638;SDS011;1329;51.384;7.122;2023-02-23T00:26:44;45.83;;;38.03;;
2638;SDS011;1329;51.384;7.122;2023-02-23T00:29:17;49.20;;;39.63;;
2638;SDS011;1329;51.384;7.122;2023-02-23T00:31:46;47.30;;;40.30;;
2638;SDS011;1329;51.384;7.122;2023-02-23T00:34:15;50.53;;;41.37;;
2638;SDS011;1329;51.384;7.122;2023-02-23T00:36:48;50.57;;;41.13;;
2638;SDS011;1329;51.384;7.122;2023-02-23T00:39:24;51.33;;;41.33;;
2638;SDS011;1329;51.384;7.122;2023-02-23T00:41:55;45.60;;;38.13;;
2638;SDS011;1329;51.384;7.122;2023-02-23T00:44:26;46.60;;;39.03;;
2638;SDS011;1329;51.384;7.122;2023-02-23T00:46:54;49.07;;;42.07;;
2638;SDS011;1329;51.384;7.122;2023-02-23T00:49:21;43.23;;;36.60;;
2638;SDS011;1329;51.384;7.122;2023-02-23T00:51:51;46.23;;;40.07;;
2638;SDS011;1329;51.384;7.122;2023-02-23T00:54:19;47.47;;;39.63;;
2638;SDS011;1329;51.384;7.122;2023-02-23T00:56:49;50.97;;;40.93;;
2638;SDS011;1329;51.384;7.122;2023-02-23T00:59:17;49.40;;;41.07;;
2638;SDS011;1329;51.384;7.122;2023-02-23T01:01:57;49.63;;;41.10;;
2638;SDS011;1329;51.384;7.122;2023-02-23T01:04:26;50.97;;;41.73;;
2638;SDS011;1329;51.384;7.122;2023-02-23T01:06:54;50.27;;;42.73;;
2638;SDS011;1329;51.384;7.122;2023-02-23T01:09:21;48.97;;;40.93;;
2638;SDS011;1329;51.384;7.122;2023-02-23T01:11:53;48.30;;;40.53;;
2638;SDS011;1329;51.384;7.122;2023-02-23T01:14:25;49.57;;;41.37;;
2638;SDS011;1329;51.384;7.122;2023-02-23T01:16:53;51.57;;;42.53;;
2638;SDS011;1329;51.384;7.122;2023-02-23T01:19:20;51.93;;;42.20;;
2638;SDS011;1329;51.384;7.122;2023-02-23T01:21:52;50.63;;;41.90;;
2638;SDS011;1329;51.384;7.122;2023-02-23T01:24:21;49.07;;;41.77;;
2638;SDS011;1329;51.384;7.122;2023-02-23T01:26:48;50.17;;;42.80;;
2638;SDS011;1329;51.384;7.122;2023-02-23T01:29:16;52.70;;;43.83;;
2638;SDS011;1329;51.384;7.122;2023-02-23T01:31:44;50.93;;;41.23;;
2638;SDS011;1329;51.384;7.122;2023-02-23T01:34:15;49.50;;;42.03;;
2638;SDS011;1329;51.384;7.122;2023-02-23T01:36:45;49.80;;;41.33;;
2638;SDS011;1329;51.384;7.122;2023-02-23T01:39:18;48.67;;;40.90;;
2638;SDS011;1329;51.384;7.122;2023-02-23T01:41:47;48.57;;;42.40;;
2638;SDS011;1329;51.384;7.122;2023-02-23T01:47:45;45.63;;;37.97;;
2638;SDS011;1329;51.384;7.122;2023-02-23T01:50:12;47.33;;;40.03;;
2638;SDS011;1329;51.384;7.122;2023-02-23T01:52:43;48.53;;;39.80;;
2638;SDS011;1329;51.384;7.122;2023-02-23T01:55:15;50.30;;;41.73;;
2638;SDS011;1329;51.384;7.122;2023-02-23T01:57:54;48.43;;;40.93;;
2638;SDS011;1329;51.384;7.122;2023-02-23T02:00:40;45.83;;;39.20;;
2638;SDS011;1329;51.384;7.122;2023-02-23T02:03:18;48.00;;;40.03;;
2638;SDS011;1329;51.384;7.122;2023-02-23T02:05:56;46.43;;;39.20;;
2638;SDS011;1329;51.384;7.122;2023-02-23T02:08:26;50.20;;;40.90;;
2638;SDS011;1329;51.384;7.122;2023-02-23T02:11:00;45.47;;;37.70;;
2638;SDS011;1329;51.384;7.122;2023-02-23T02:13:48;47.60;;;40.37;;
2638;SDS011;1329;51.384;7.122;2023-02-23T02:16:24;47.73;;;39.87;;
2638;SDS011;1329;51.384;7.122;2023-02-23T02:19:21;45.93;;;38.37;;
2638;SDS011;1329;51.384;7.122;2023-02-23T02:22:34;44.87;;;38.50;;
2638;SDS011;1329;51.384;7.122;2023-02-23T02:25:37;46.73;;;39.90;;
2638;SDS011;1329;51.384;7.122;2023-02-23T02:28:53;47.27;;;38.13;;
2638;SDS011;1329;51.384;7.122;2023-02-23T02:32:28;45.20;;;36.67;;
2638;SDS011;1329;51.384;7.122;2023-02-23T02:39:12;43.27;;;36.90;;
2638;SDS011;1329;51.384;7.122;2023-02-23T02:42:02;49.07;;;40.17;;
2638;SDS011;1329;51.384;7.122;2023-02-23T02:44:46;49.57;;;40.83;;
2638;SDS011;1329;51.384;7.122;2023-02-23T02:47:22;52.30;;;41.37;;
2638;SDS011;1329;51.384;7.122;2023-02-23T02:50:03;47.03;;;39.20;;
2638;SDS011;1329;51.384;7.122;2023-02-23T02:52:38;50.87;;;41.53;;
2638;SDS011;1329;51.384;7.122;2023-02-23T02:55:12;46.20;;;39.17;;
2638;SDS011;1329;51.384;7.122;2023-02-23T02:57:50;48.37;;;40.30;;
2638;SDS011;1329;51.384;7.122;2023-02-23T03:00:22;50.33;;;39.90;;
2638;SDS011;1329;51.384;7.122;2023-02-23T03:03:26;46.60;;;39.23;;
2638;SDS011;1329;51.384;7.122;2023-02-23T03:06:12;45.23;;;38.63;;
2638;SDS011;1329;51.384;7.122;2023-02-23T03:09:00;46.07;;;38.40;;
2638;SDS011;1329;51.384;7.122;2023-02-23T03:11:54;46.60;;;38.33;;
2638;SDS011;1329;51.384;7.122;2023-02-23T03:14:51;44.03;;;37.53;;
2638;SDS011;1329;51.384;7.122;2023-02-23T03:17:47;40.73;;;34.93;;
2638;SDS011;1329;51.384;7.122;2023-02-23T03:20:42;44.37;;;36.77;;
2638;SDS011;1329;51.384;7.122;2023-02-23T03:23:37;41.60;;;35.47;;
2638;SDS011;1329;51.384;7.122;2023-02-23T03:26:35;42.80;;;37.00;;
2638;SDS011;1329;51.384;7.122;2023-02-23T03:29:24;39.53;;;33.80;;
2638;SDS011;1329;51.384;7.122;2023-02-23T03:32:17;41.77;;;35.80;;
2638;SDS011;1329;51.384;7.122;2023-02-23T03:35:11;42.03;;;35.90;;
2638;SDS011;1329;51.384;7.122;2023-02-23T03:38:10;47.03;;;38.57;;
2638;SDS011;1329;51.384;7.122;2023-02-23T03:41:00;45.10;;;38.40;;
2638;SDS011;1329;51.384;7.122;2023-02-23T03:43:50;44.87;;;38.93;;
2638;SDS011;1329;51.384;7.122;2023-02-23T03:46:44;42.53;;;36.20;;
2638;SDS011;1329;51.384;7.122;2023-02-23T03:49:32;44.73;;;38.00;;
2638;SDS011;1329;51.384;7.122;2023-02-23T03:52:23;51.77;;;42.00;;
2638;SDS011;1329;51.384;7.122;2023-02-23T03:55:14;50.93;;;41.57;;
2638;SDS011;1329;51.384;7.122;2023-02-23T03:58:08;52.83;;;42.17;;
2638;SDS011;1329;51.384;7.122;2023-02-23T04:00:59;48.40;;;41.20;;
2638;SDS011;1329;51.384;7.122;2023-02-23T04:03:47;51.23;;;41.90;;
2638;SDS011;1329;51.384;7.122;2023-02-23T04:06:48;54.93;;;44.07;;
2638;SDS011;1329;51.384;7.122;2023-02-23T04:09:33;55.33;;;43.07;;
2638;SDS011;1329;51.384;7.122;2023-02-23T04:12:19;52.33;;;42.03;;
2638;SDS011;1329;51.384;7.122;2023-02-23T04:15:10;53.53;;;42.53;;
2638;SDS011;1329;51.384;7.122;2023-02-23T04:17:44;52.37;;;40.87;;
2638;SDS011;1329;51.384;7.122;2023-02-23T04:20:14;51.63;;;41.70;;
2638;SDS011;1329;51.384;7.122;2023-02-23T04:22:42;51.60;;;43.00;;
2638;SDS011;1329;51.384;7.122;2023-02-23T04:25:13;53.63;;;43.13;;
2638;SDS011;1329;51.384;7.122;2023-02-23T04:27:43;53.27;;;42.10;;
2638;SDS011;1329;51.384;7.122;2023-02-23T04:30:14;53.17;;;42.67;;
2638;SDS011;1329;51.384;7.122;2023-02-23T04:32:41;53.07;;;41.97;;
2638;SDS011;1329;51.384;7.122;2023-02-23T04:35:13;49.67;;;42.17;;
2638;SDS011;1329;51.384;7.122;2023-02-23T04:37:46;52.03;;;42.73;;
2638;SDS011;1329;51.384;7.122;2023-02-23T04:40:13;50.23;;;41.30;;
2638;SDS011;1329;51.384;7.122;2023-02-23T04:42:41;49.80;;;41.57;;
2638;SDS011;1329;51.384;7.122;2023-02-23T04:45:09;53.40;;;42.80;;
2638;SDS011;1329;51.384;7.122;2023-02-23T04:47:36;54.17;;;43.30;;
2638;SDS011;1329;51.384;7.122;2023-02-23T04:50:06;53.50;;;43.33;;
2638;SDS011;1329;51.384;7.122;2023-02-23T04:52:35;56.20;;;43.90;;
2638;SDS011;1329;51.384;7.122;2023-02-23T04:55:03;56.10;;;44.93;;
2638;SDS011;1329;51.384;7.122;2023-02-23T04:57:34;58.53;;;44.77;;
2638;SDS011;1329;51.384;7.122;2023-02-23T05:00:02;52.77;;;42.47;;
2638;SDS011;1329;51.384;7.122;2023-02-23T05:02:31;53.37;;;42.10;;
2638;SDS011;1329;51.384;7.122;2023-02-23T05:05:07;58.90;;;45.00;;
2638;SDS011;1329;51.384;7.122;2023-02-23T05:07:35;64.13;;;47.07;;
2638;SDS011;1329;51.384;7.122;2023-02-23T05:10:05;62.23;;;45.40;;
2638;SDS011;1329;51.384;7.122;2023-02-23T05:12:36;57.07;;;44.43;;
2638;SDS011;1329;51.384;7.122;2023-02-23T05:15:09;62.33;;;46.53;;
2638;SDS011;1329;51.384;7.122;2023-02-23T05:17:37;56.67;;;43.50;;
2638;SDS011;1329;51.384;7.122;2023-02-23T05:20:13;55.13;;;44.00;;
2638;SDS011;1329;51.384;7.122;2023-02-23T05:22:43;54.00;;;43.17;;
2638;SDS011;1329;51.384;7.122;2023-02-23T05:25:12;56.40;;;43.83;;
2638;SDS011;1329;51.384;7.122;2023-02-23T05:27:44;56.70;;;43.67;;
2638;SDS011;1329;51.384;7.122;2023-02-23T05:30:14;57.73;;;43.50;;
2638;SDS011;1329;51.384;7.122;2023-02-23T05:32:41;59.43;;;45.20;;
2638;SDS011;1329;51.384;7.122;2023-02-23T05:35:10;61.80;;;45.70;;
2638;SDS011;1329;51.384;7.122;2023-02-23T05:37:53;57.57;;;42.87;;
2638;SDS011;1329;51.384;7.122;2023-02-23T05:40:23;57.70;;;44.30;;
2638;SDS011;1329;51.384;7.122;2023-02-23T05:42:56;60.00;;;44.90;;
2638;SDS011;1329;51.384;7.122;2023-02-23T05:45:25;57.27;;;43.97;;
2638;SDS011;1329;51.384;7.122;2023-02-23T05:47:52;59.13;;;44.63;;
2638;SDS011;1329;51.384;7.122;2023-02-23T05:50:41;56.73;;;43.33;;
2638;SDS011;1329;51.384;7.122;2023-02-23T05:53:08;57.53;;;42.90;;
2638;SDS011;1329;51.384;7.122;2023-02-23T05:55:37;57.97;;;44.07;;
2638;SDS011;1329;51.384;7.122;2023-02-23T05:58:04;56.93;;;43.03;;
2638;SDS011;1329;51.384;7.122;2023-02-23T06:00:34;59.67;;;44.27;;
2638;SDS011;1329;51.384;7.122;2023-02-23T06:03:01;57.53;;;44.00;;
2638;SDS011;1329;51.384;7.122;2023-02-23T06:05:29;57.50;;;44.27;;
2638;SDS011;1329;51.384;7.122;2023-02-23T06:08:08;57.90;;;43.77;;
2638;SDS011;1329;51.384;7.122;2023-02-23T06:10:36;56.73;;;43.27;;
2638;SDS011;1329;51.384;7.122;2023-02-23T06:13:03;58.00;;;43.57;;
2638;SDS011;1329;51.384;7.122;2023-02-23T06:15:31;57.20;;;43.60;;
2638;SDS011;1329;51.384;7.122;2023-02-23T06:18:10;59.33;;;43.80;;
2638;SDS011;1329;51.384;7.122;2023-02-23T06:20:49;56.47;;;42.60;;
2638;SDS011;1329;51.384;7.122;2023-02-23T06:23:29;55.63;;;42.70;;
2638;SDS011;1329;51.384;7.122;2023-02-23T06:25:58;59.77;;;43.47;;
2638;SDS011;1329;51.384;7.122;2023-02-23T06:28:32;56.10;;;42.67;;
2638;SDS011;1329;51.384;7.122;2023-02-23T06:31:08;58.03;;;42.87;;
2638;SDS011;1329;51.384;7.122;2023-02-23T06:36:34;57.30;;;43.77;;
2638;SDS011;1329;51.384;7.122;2023-02-23T06:39:08;57.50;;;42.67;;
2638;SDS011;1329;51.384;7.122;2023-02-23T06:41:44;57.37;;;42.80;;
2638;SDS011;1329;51.384;7.122;2023-02-23T06:44:12;58.23;;;43.70;;
2638;SDS011;1329;51.384;7.122;2023-02-23T06:46:46;56.70;;;43.17;;
2638;SDS011;1329;51.384;7.122;2023-02-23T06:49:13;61.63;;;44.67;;
2638;SDS011;1329;51.384;7.122;2023-02-23T06:51:42;56.30;;;43.27;;
2638;SDS011;1329;51.384;7.122;2023-02-23T06:54:13;62.33;;;46.23;;
2638;SDS011;1329;51.384;7.122;2023-02-23T06:56:40;61.70;;;45.20;;
2638;SDS011;1329;51.384;7.122;2023-02-23T06:59:11;61.70;;;44.60;;
2638;SDS011;1329;51.384;7.122;2023-02-23T07:01:37;60.50;;;45.03;;
2638;SDS011;1329;51.384;7.122;2023-02-23T07:04:14;60.70;;;44.20;;
2638;SDS011;1329;51.384;7.122;2023-02-23T07:07:06;59.47;;;43.27;;
2638;SDS011;1329;51.384;7.122;2023-02-23T07:09:33;60.57;;;43.47;;
2638;SDS011;1329;51.384;7.122;2023-02-23T07:12:03;60.10;;;43.33;;
2638;SDS011;1329;51.384;7.122;2023-02-23T07:14:30;60.37;;;43.17;;
2638;SDS011;1329;51.384;7.122;2023-02-23T07:16:59;55.77;;;42.37;;
2638;SDS011;1329;51.384;7.122;2023-02-23T07:19:29;58.20;;;42.83;;
2638;SDS011;1329;51.384;7.122;2023-02-23T07:21:57;60.63;;;44.47;;
2638;SDS011;1329;51.384;7.122;2023-02-23T07:24:25;60.20;;;43.93;;
2638;SDS011;1329;51.384;7.122;2023-02-23T07:26:57;62.83;;;44.63;;
2638;SDS011;1329;51.384;7.122;2023-02-23T07:29:49;58.40;;;42.60;;
2638;SDS011;1329;51.384;7.122;2023-02-23T07:32:21;56.87;;;43.37;;
2638;SDS011;1329;51.384;7.122;2023-02-23T07:34:49;61.63;;;43.57;;
2638;SDS011;1329;51.384;7.122;2023-02-23T07:37:18;60.47;;;45.37;;
2638;SDS011;1329;51.384;7.122;2023-02-23T07:39:48;60.60;;;44.50;;
2638;SDS011;1329;51.384;7.122;2023-02-23T07:42:15;61.77;;;45.43;;
2638;SDS011;1329;51.384;7.122;2023-02-23T07:44:45;60.63;;;44.50;;
2638;SDS011;1329;51.384;7.122;2023-02-23T07:47:15;59.87;;;44.43;;
2638;SDS011;1329;51.384;7.122;2023-02-23T07:49:46;57.87;;;42.73;;
2638;SDS011;1329;51.384;7.122;2023-02-23T07:52:17;58.77;;;43.83;;
2638;SDS011;1329;51.384;7.122;2023-02-23T07:54:51;54.57;;;42.30;;
2638;SDS011;1329;51.384;7.122;2023-02-23T07:57:26;57.73;;;43.43;;
2638;SDS011;1329;51.384;7.122;2023-02-23T07:59:52;61.47;;;45.27;;
2638;SDS011;1329;51.384;7.122;2023-02-23T08:02:30;61.60;;;45.83;;
2638;SDS011;1329;51.384;7.122;2023-02-23T08:05:04;60.23;;;44.20;;
2638;SDS011;1329;51.384;7.122;2023-02-23T08:07:36;59.03;;;43.33;;
2638;SDS011;1329;51.384;7.122;2023-02-23T08:10:10;56.13;;;43.07;;
2638;SDS011;1329;51.384;7.122;2023-02-23T08:12:38;59.30;;;44.43;;
2638;SDS011;1329;51.384;7.122;2023-02-23T08:15:13;56.13;;;42.40;;
2638;SDS011;1329;51.384;7.122;2023-02-23T08:17:40;56.90;;;42.90;;
2638;SDS011;1329;51.384;7.122;2023-02-23T08:20:13;54.13;;;42.33;;
2638;SDS011;1329;51.384;7.122;2023-02-23T08:22:44;55.70;;;41.27;;
2638;SDS011;1329;51.384;7.122;2023-02-23T08:25:12;56.57;;;41.83;;
2638;SDS011;1329;51.384;7.122;2023-02-23T08:27:42;52.43;;;40.30;;
2638;SDS011;1329;51.384;7.122;2023-02-23T08:30:19;49.40;;;38.90;;
2638;SDS011;1329;51.384;7.122;2023-02-23T08:33:00;48.83;;;39.30;;
2638;SDS011;1329;51.384;7.122;2023-02-23T08:35:32;47.87;;;38.67;;
2638;SDS011;1329;51.384;7.122;2023-02-23T08:37:59;49.20;;;38.17;;
2638;SDS011;1329;51.384;7.122;2023-02-23T08:40:36;45.97;;;37.23;;
2638;SDS011;1329;51.384;7.122;2023-02-23T08:43:03;43.40;;;36.87;;
2638;SDS011;1329;51.384;7.122;2023-02-23T08:45:30;47.70;;;38.03;;
2638;SDS011;1329;51.384;7.122;2023-02-23T08:48:03;47.27;;;38.77;;
2638;SDS011;1329;51.384;7.122;2023-02-23T08:50:56;43.67;;;37.03;;
2638;SDS011;1329;51.384;7.122;2023-02-23T08:53:34;43.00;;;33.93;;
2638;SDS011;1329;51.384;7.122;2023-02-23T08:56:04;48.97;;;34.17;;
2638;SDS011;1329;51.384;7.122;2023-02-23T08:58:35;45.83;;;33.53;;
2638;SDS011;1329;51.384;7.122;2023-02-23T09:01:03;43.27;;;31.57;;
2638;SDS011;1329;51.384;7.122;2023-02-23T09:03:33;44.17;;;32.73;;
2638;SDS011;1329;51.384;7.122;2023-02-23T09:06:06;44.20;;;30.70;;
2638;SDS011;1329;51.384;7.122;2023-02-23T09:08:35;45.83;;;32.37;;
2638;SDS011;1329;51.384;7.122;2023-02-23T09:11:16;45.50;;;31.90;;
2638;SDS011;1329;51.384;7.122;2023-02-23T09:13:43;42.13;;;30.63;;
2638;SDS011;1329;51.384;7.122;2023-02-23T09:16:10;41.00;;;30.70;;
2638;SDS011;1329;51.384;7.122;2023-02-23T09:18:41;42.27;;;30.27;;
2638;SDS011;1329;51.384;7.122;2023-02-23T09:21:15;41.17;;;30.33;;
2638;SDS011;1329;51.384;7.122;2023-02-23T09:23:49;42.87;;;31.10;;
2638;SDS011;1329;51.384;7.122;2023-02-23T09:26:20;43.60;;;32.27;;
2638;SDS011;1329;51.384;7.122;2023-02-23T09:28:50;47.27;;;32.80;;
2638;SDS011;1329;51.384;7.122;2023-02-23T09:31:30;51.67;;;33.63;;
2638;SDS011;1329;51.384;7.122;2023-02-23T09:34:07;46.90;;;33.33;;
2638;SDS011;1329;51.384;7.122;2023-02-23T09:36:37;52.50;;;34.07;;
2638;SDS011;1329;51.384;7.122;2023-02-23T09:39:04;48.83;;;32.67;;
2638;SDS011;1329;51.384;7.122;2023-02-23T09:41:48;51.30;;;33.77;;
2638;SDS011;1329;51.384;7.122;2023-02-23T09:44:35;47.43;;;31.63;;
2638;SDS011;1329;51.384;7.122;2023-02-23T09:47:32;42.37;;;30.87;;
2638;SDS011;1329;51.384;7.122;2023-02-23T09:50:16;46.80;;;31.77;;
2638;SDS011;1329;51.384;7.122;2023-02-23T09:52:48;47.23;;;31.43;;
2638;SDS011;1329;51.384;7.122;2023-02-23T09:55:25;44.87;;;30.27;;
2638;SDS011;1329;51.384;7.122;2023-02-23T09:57:57;44.43;;;29.67;;
2638;SDS011;1329;51.384;7.122;2023-02-23T10:00:39;46.17;;;30.73;;
2638;SDS011;1329;51.384;7.122;2023-02-23T10:03:20;45.07;;;29.23;;
2638;SDS011;1329;51.384;7.122;2023-02-23T10:05:55;46.13;;;30.93;;
2638;SDS011;1329;51.384;7.122;2023-02-23T10:08:32;47.13;;;31.13;;
2638;SDS011;1329;51.384;7.122;2023-02-23T10:11:19;45.87;;;30.03;;
2638;SDS011;1329;51.384;7.122;2023-02-23T10:13:57;46.10;;;30.07;;
2638;SDS011;1329;51.384;7.122;2023-02-23T10:16:46;42.77;;;28.17;;
2638;SDS011;1329;51.384;7.122;2023-02-23T10:19:30;49.63;;;30.50;;
2638;SDS011;1329;51.384;7.122;2023-02-23T10:22:11;48.47;;;29.97;;
2638;SDS011;1329;51.384;7.122;2023-02-23T10:24:47;46.33;;;29.87;;
2638;SDS011;1329;51.384;7.122;2023-02-23T10:27:27;47.87;;;30.30;;
2638;SDS011;1329;51.384;7.122;2023-02-23T10:30:11;48.73;;;30.67;;
2638;SDS011;1329;51.384;7.122;2023-02-23T10:32:49;46.37;;;29.37;;
2638;SDS011;1329;51.384;7.122;2023-02-23T10:35:36;48.60;;;30.80;;
2638;SDS011;1329;51.384;7.122;2023-02-23T10:38:14;44.83;;;28.97;;
2638;SDS011;1329;51.384;7.122;2023-02-23T10:40:44;46.47;;;29.40;;
2638;SDS011;1329;51.384;7.122;2023-02-23T10:43:15;45.47;;;29.83;;
2638;SDS011;1329;51.384;7.122;2023-02-23T10:45:50;47.27;;;29.70;;
2638;SDS011;1329;51.384;7.122;2023-02-23T10:48:21;49.43;;;31.50;;
2638;SDS011;1329;51.384;7.122;2023-02-23T10:50:56;49.90;;;31.20;;
2638;SDS011;1329;51.384;7.122;2023-02-23T10:53:36;52.47;;;30.93;;
2638;SDS011;1329;51.384;7.122;2023-02-23T10:56:04;52.33;;;34.23;;
2638;SDS011;1329;51.384;7.122;2023-02-23T10:58:38;50.83;;;31.80;;
2638;SDS011;1329;51.384;7.122;2023-02-23T11:01:10;50.90;;;33.47;;
2638;SDS011;1329;51.384;7.122;2023-02-23T11:03:46;55.30;;;34.33;;
2638;SDS011;1329;51.384;7.122;2023-02-23T11:06:38;52.37;;;33.43;;
2638;SDS011;1329;51.384;7.122;2023-02-23T11:09:17;58.90;;;36.37;;
2638;SDS011;1329;51.384;7.122;2023-02-23T11:12:14;56.63;;;35.40;;
2638;SDS011;1329;51.384;7.122;2023-02-23T11:14:46;55.40;;;36.17;;
2638;SDS011;1329;51.384;7.122;2023-02-23T11:17:28;58.80;;;36.07;;
2638;SDS011;1329;51.384;7.122;2023-02-23T11:20:03;58.97;;;35.80;;
2638;SDS011;1329;51.384;7.122;2023-02-23T11:22:35;55.23;;;34.80;;
2638;SDS011;1329;51.384;7.122;2023-02-23T11:25:13;54.07;;;34.07;;
2638;SDS011;1329;51.384;7.122;2023-02-23T11:27:47;57.97;;;35.73;;
2638;SDS011;1329;51.384;7.122;2023-02-23T11:30:20;63.00;;;37.57;;
2638;SDS011;1329;51.384;7.122;2023-02-23T11:32:58;58.37;;;36.60;;
2638;SDS011;1329;51.384;7.122;2023-02-23T11:35:33;55.47;;;35.20;;
2638;SDS011;1329;51.384;7.122;2023-02-23T11:38:19;59.90;;;36.23;;
2638;SDS011;1329;51.384;7.122;2023-02-23T11:40:59;56.03;;;35.17;;
2638;SDS011;1329;51.384;7.122;2023-02-23T11:43:29;53.43;;;32.13;;
2638;SDS011;1329;51.384;7.122;2023-02-23T11:45:57;57.37;;;34.50;;
2638;SDS011;1329;51.384;7.122;2023-02-23T11:48:33;51.40;;;31.83;;
2638;SDS011;1329;51.384;7.122;2023-02-23T11:51:06;45.30;;;28.93;;
2638;SDS011;1329;51.384;7.122;2023-02-23T11:53:44;43.10;;;28.13;;
2638;SDS011;1329;51.384;7.122;2023-02-23T11:56:13;48.30;;;29.50;;
2638;SDS011;1329;51.384;7.122;2023-02-23T11:58:57;46.97;;;28.00;;
2638;SDS011;1329;51.384;7.122;2023-02-23T12:01:34;46.53;;;29.43;;
2638;SDS011;1329;51.384;7.122;2023-02-23T12:04:26;43.47;;;28.10;;
2638;SDS011;1329;51.384;7.122;2023-02-23T12:10:15;45.30;;;28.07;;
2638;SDS011;1329;51.384;7.122;2023-02-23T12:12:57;52.27;;;33.27;;
2638;SDS011;1329;51.384;7.122;2023-02-23T12:15:49;57.37;;;36.07;;
2638;SDS011;1329;51.384;7.122;2023-02-23T12:18:36;58.40;;;35.90;;
2638;SDS011;1329;51.384;7.122;2023-02-23T12:21:26;62.10;;;36.50;;
2638;SDS011;1329;51.384;7.122;2023-02-23T12:24:08;60.33;;;35.70;;
2638;SDS011;1329;51.384;7.122;2023-02-23T12:26:44;60.73;;;35.87;;
2638;SDS011;1329;51.384;7.122;2023-02-23T12:29:38;55.03;;;34.57;;
2638;SDS011;1329;51.384;7.122;2023-02-23T12:32:22;54.20;;;32.60;;
2638;SDS011;1329;51.384;7.122;2023-02-23T12:34:55;52.87;;;31.67;;
2638;SDS011;1329;51.384;7.122;2023-02-23T12:37:36;51.70;;;30.90;;
2638;SDS011;1329;51.384;7.122;2023-02-23T12:40:13;48.27;;;29.63;;
2638;SDS011;1329;51.384;7.122;2023-02-23T12:42:48;44.53;;;27.80;;
2638;SDS011;1329;51.384;7.122;2023-02-23T12:45:25;44.60;;;28.17;;
2638;SDS011;1329;51.384;7.122;2023-02-23T12:48:06;42.60;;;26.37;;
2638;SDS011;1329;51.384;7.122;2023-02-23T12:50:41;42.77;;;26.17;;
2638;SDS011;1329;51.384;7.122;2023-02-23T12:53:20;40.77;;;25.13;;
2638;SDS011;1329;51.384;7.122;2023-02-23T12:56:02;36.30;;;23.10;;
2638;SDS011;1329;51.384;7.122;2023-02-23T12:58:44;34.30;;;21.83;;
2638;SDS011;1329;51.384;7.122;2023-02-23T13:01:25;35.10;;;21.13;;
2638;SDS011;1329;51.384;7.122;2023-02-23T13:04:03;33.57;;;21.53;;
2638;SDS011;1329;51.384;7.122;2023-02-23T13:17:50;28.87;;;19.53;;
2638;SDS011;1329;51.384;7.122;2023-02-23T13:20:29;30.00;;;20.07;;
2638;SDS011;1329;51.384;7.122;2023-02-23T13:23:08;32.70;;;20.77;;
2638;SDS011;1329;51.384;7.122;2023-02-23T13:25:47;32.27;;;20.93;;
2638;SDS011;1329;51.384;7.122;2023-02-23T13:28:28;29.17;;;19.90;;
2638;SDS011;1329;51.384;7.122;2023-02-23T13:31:08;30.60;;;20.40;;
2638;SDS011;1329;51.384;7.122;2023-02-23T13:33:46;32.93;;;21.90;;
2638;SDS011;1329;51.384;7.122;2023-02-23T13:36:14;31.57;;;21.07;;
2638;SDS011;1329;51.384;7.122;2023-02-23T13:38:45;31.63;;;20.80;;
2638;SDS011;1329;51.384;7.122;2023-02-23T13:41:35;30.10;;;20.83;;
2638;SDS011;1329;51.384;7.122;2023-02-23T13:44:08;32.07;;;21.03;;
2638;SDS011;1329;51.384;7.122;2023-02-23T13:46:55;31.93;;;21.13;;
2638;SDS011;1329;51.384;7.122;2023-02-23T13:49:34;32.10;;;20.97;;
2638;SDS011;1329;51.384;7.122;2023-02-23T13:52:09;29.93;;;20.50;;
2638;SDS011;1329;51.384;7.122;2023-02-23T13:54:53;34.23;;;21.47;;
2638;SDS011;1329;51.384;7.122;2023-02-23T13:57:27;31.43;;;19.93;;
2638;SDS011;1329;51.384;7.122;2023-02-23T13:59:57;31.27;;;20.90;;
2638;SDS011;1329;51.384;7.122;2023-02-23T14:02:32;28.53;;;18.97;;
2638;SDS011;1329;51.384;7.122;2023-02-23T14:05:06;28.27;;;18.80;;
2638;SDS011;1329;51.384;7.122;2023-02-23T14:07:55;30.30;;;19.80;;
2638;SDS011;1329;51.384;7.122;2023-02-23T14:10:34;28.37;;;18.97;;
2638;SDS011;1329;51.384;7.122;2023-02-23T14:13:31;27.87;;;18.57;;
2638;SDS011;1329;51.384;7.122;2023-02-23T14:16:17;26.67;;;18.70;;
2638;SDS011;1329;51.384;7.122;2023-02-23T14:18:52;27.83;;;18.43;;
2638;SDS011;1329;51.384;7.122;2023-02-23T14:21:57;26.37;;;19.17;;
2638;SDS011;1329;51.384;7.122;2023-02-23T14:24:30;25.90;;;17.73;;
2638;SDS011;1329;51.384;7.122;2023-02-23T14:27:16;27.53;;;18.43;;
2638;SDS011;1329;51.384;7.122;2023-02-23T14:32:54;25.87;;;17.80;;
2638;SDS011;1329;51.384;7.122;2023-02-23T14:35:37;29.37;;;18.83;;
2638;SDS011;1329;51.384;7.122;2023-02-23T14:38:14;26.33;;;17.90;;
2638;SDS011;1329;51.384;7.122;2023-02-23T14:40:52;26.53;;;17.27;;
2638;SDS011;1329;51.384;7.122;2023-02-23T14:43:30;24.90;;;17.03;;
2638;SDS011;1329;51.384;7.122;2023-02-23T14:46:09;26.17;;;17.83;;
2638;SDS011;1329;51.384;7.122;2023-02-23T14:48:54;24.97;;;17.00;;
2638;SDS011;1329;51.384;7.122;2023-02-23T14:51:36;25.50;;;17.10;;
2638;SDS011;1329;51.384;7.122;2023-02-23T14:54:08;27.43;;;18.33;;
2638;SDS011;1329;51.384;7.122;2023-02-23T14:56:44;27.57;;;18.13;;
2638;SDS011;1329;51.384;7.122;2023-02-23T14:59:18;24.63;;;16.63;;
2638;SDS011;1329;51.384;7.122;2023-02-23T15:01:50;27.37;;;18.00;;
2638;SDS011;1329;51.384;7.122;2023-02-23T15:04:37;26.90;;;18.30;;
2638;SDS011;1329;51.384;7.122;2023-02-23T15:07:10;25.10;;;17.37;;
2638;SDS011;1329;51.384;7.122;2023-02-23T15:12:48;26.50;;;17.77;;
2638;SDS011;1329;51.384;7.122;2023-02-23T15:15:17;29.70;;;18.83;;
2638;SDS011;1329;51.384;7.122;2023-02-23T15:17:51;26.00;;;18.43;;
2638;SDS011;1329;51.384;7.122;2023-02-23T15:20:28;26.23;;;18.83;;
2638;SDS011;1329;51.384;7.122;2023-02-23T15:23:01;25.80;;;18.17;;
2638;SDS011;1329;51.384;7.122;2023-02-23T15:25:36;27.03;;;18.87;;
2638;SDS011;1329;51.384;7.122;2023-02-23T15:28:24;26.10;;;17.70;;
2638;SDS011;1329;51.384;7.122;2023-02-23T15:31:01;26.60;;;18.00;;
2638;SDS011;1329;51.384;7.122;2023-02-23T15:33:35;26.00;;;18.10;;
2638;SDS011;1329;51.384;7.122;2023-02-23T15:36:05;25.53;;;17.73;;
2638;SDS011;1329;51.384;7.122;2023-02-23T15:38:49;26.13;;;17.50;;
2638;SDS011;1329;51.384;7.122;2023-02-23T15:41:23;26.60;;;18.20;;
2638;SDS011;1329;51.384;7.122;2023-02-23T15:44:08;24.37;;;16.37;;
2638;SDS011;1329;51.384;7.122;2023-02-23T15:46:42;24.83;;;17.57;;
2638;SDS011;1329;51.384;7.122;2023-02-23T15:49:21;27.87;;;17.87;;
2638;SDS011;1329;51.384;7.122;2023-02-23T15:51:59;26.87;;;16.57;;
2638;SDS011;1329;51.384;7.122;2023-02-23T15:54:32;25.60;;;16.83;;
2638;SDS011;1329;51.384;7.122;2023-02-23T15:57:15;26.43;;;17.70;;
2638;SDS011;1329;51.384;7.122;2023-02-23T16:00:00;26.63;;;17.67;;
2638;SDS011;1329;51.384;7.122;2023-02-23T16:02:35;25.50;;;17.30;;
2638;SDS011;1329;51.384;7.122;2023-02-23T16:05:19;27.67;;;17.10;;
2638;SDS011;1329;51.384;7.122;2023-02-23T16:08:00;27.87;;;18.13;;
2638;SDS011;1329;51.384;7.122;2023-02-23T16:11:00;23.90;;;16.00;;
2638;SDS011;1329;51.384;7.122;2023-02-23T16:13:43;26.87;;;17.37;;
2638;SDS011;1329;51.384;7.122;2023-02-23T16:16:13;26.17;;;17.23;;